createdAt,value
2018-12-08T00:01:56.116Z,7.20
2018-12-08T00:04:23.048Z,7.20
2018-12-08T00:06:49.925Z,7.20
2018-12-08T00:09:16.603Z,7.30
2018-12-08T00:11:43.061Z,7.20
2018-12-08T00:14:09.529Z,7.20
2018-12-08T00:16:36.185Z,7.20
2018-12-08T00:19:02.875Z,7.30
2018-12-08T00:21:29.355Z,7.20
2018-12-08T00:23:55.817Z,7.30
2018-12-08T00:26:22.427Z,7.20
2018-12-08T00:28:49.037Z,7.30
2018-12-08T00:31:28.014Z,7.30
2018-12-08T00:33:54.536Z,7.20
2018-12-08T00:36:21.048Z,7.20
2018-12-08T00:38:47.518Z,7.20
2018-12-08T00:41:13.996Z,7.20
2018-12-08T00:43:40.462Z,7.30
2018-12-08T00:46:07.045Z,7.20
2018-12-08T00:48:33.512Z,7.20
2018-12-08T00:51:00.002Z,7.30
2018-12-08T00:53:26.743Z,7.20
2018-12-08T00:55:53.266Z,7.20
2018-12-08T00:58:19.702Z,7.30
2018-12-08T01:00:46.193Z,7.30
2018-12-08T01:03:13.266Z,7.30
2018-12-08T01:05:40.397Z,7.20
2018-12-08T01:08:07.117Z,7.20
2018-12-08T01:10:34.006Z,7.20
2018-12-08T01:13:00.455Z,7.20
2018-12-08T01:15:26.937Z,7.20
2018-12-08T01:17:53.393Z,7.30
2018-12-08T01:20:19.982Z,7.20
2018-12-08T01:22:46.435Z,7.20
2018-12-08T01:25:13.151Z,7.30
2018-12-08T01:27:41.031Z,7.20
2018-12-08T01:30:08.013Z,7.20
2018-12-08T01:32:34.638Z,7.10
2018-12-08T01:35:01.140Z,7.20
2018-12-08T01:37:27.685Z,7.20
2018-12-08T01:39:54.161Z,7.20
2018-12-08T01:42:20.720Z,7.30
2018-12-08T01:44:47.214Z,7.30
2018-12-08T01:47:13.694Z,7.20
2018-12-08T01:49:40.180Z,7.20
2018-12-08T01:52:06.658Z,7.20
2018-12-08T01:54:33.198Z,7.20
2018-12-08T01:56:59.689Z,7.30
2018-12-08T01:59:26.136Z,7.20
2018-12-08T02:01:52.607Z,7.20
2018-12-08T02:04:19.616Z,7.20
2018-12-08T02:06:45.995Z,7.20
2018-12-08T02:09:14.444Z,7.20
2018-12-08T02:11:40.958Z,7.10
2018-12-08T02:14:07.397Z,7.00
2018-12-08T02:16:33.880Z,7.00
2018-12-08T02:19:00.317Z,6.90
2018-12-08T02:21:26.804Z,6.80
2018-12-08T02:23:53.269Z,6.70
2018-12-08T02:26:19.862Z,6.70
2018-12-08T02:28:46.480Z,6.70
2018-12-08T02:31:13.219Z,6.70
2018-12-08T02:33:39.760Z,6.70
2018-12-08T02:36:06.348Z,6.70
2018-12-08T02:38:32.836Z,6.60
2018-12-08T02:40:59.311Z,6.60
2018-12-08T02:43:25.746Z,6.60
2018-12-08T02:45:52.386Z,6.50
2018-12-08T02:48:18.841Z,6.60
2018-12-08T02:50:45.327Z,6.50
2018-12-08T02:53:11.784Z,6.50
2018-12-08T02:55:38.265Z,6.50
2018-12-08T02:58:04.727Z,6.50
2018-12-08T03:00:31.285Z,6.50
2018-12-08T03:02:57.852Z,6.60
2018-12-08T03:05:24.460Z,6.50
2018-12-08T03:07:50.805Z,6.50
2018-12-08T03:10:17.255Z,6.50
2018-12-08T03:12:43.723Z,6.40
2018-12-08T03:15:10.400Z,6.40
2018-12-08T03:17:36.872Z,6.30
2018-12-08T03:20:03.749Z,6.30
2018-12-08T03:22:31.247Z,6.30
2018-12-08T03:24:57.828Z,6.40
2018-12-08T03:27:24.404Z,6.30
2018-12-08T03:29:50.940Z,6.30
2018-12-08T03:32:17.432Z,6.40
2018-12-08T03:34:43.983Z,6.50
2018-12-08T03:37:10.567Z,6.50
2018-12-08T03:39:37.025Z,6.60
2018-12-08T03:42:05.337Z,6.50
2018-12-08T03:44:32.307Z,6.50
2018-12-08T03:46:58.930Z,6.40
2018-12-08T03:49:25.611Z,6.40
2018-12-08T03:51:52.378Z,6.30
2018-12-08T03:54:19.038Z,6.30
2018-12-08T03:56:45.716Z,6.40
2018-12-08T03:59:12.157Z,6.30
2018-12-08T04:01:38.655Z,6.30
2018-12-08T04:04:06.098Z,6.20
2018-12-08T04:06:32.788Z,6.30
2018-12-08T04:08:59.354Z,6.30
2018-12-08T04:11:26.035Z,6.30
2018-12-08T04:13:52.724Z,6.30
2018-12-08T04:16:20.166Z,6.30
2018-12-08T04:18:46.741Z,6.30
2018-12-08T04:21:13.412Z,6.20
2018-12-08T04:23:40.357Z,6.20
2018-12-08T04:26:08.041Z,6.20
2018-12-08T04:28:34.608Z,6.20
2018-12-08T04:31:01.277Z,6.20
2018-12-08T04:33:27.732Z,6.20
2018-12-08T04:35:54.722Z,6.20
2018-12-08T04:38:21.492Z,6.30
2018-12-08T04:40:47.957Z,6.30
2018-12-08T04:43:14.504Z,6.40
2018-12-08T04:45:41.398Z,6.40
2018-12-08T04:48:07.976Z,6.30
2018-12-08T04:50:34.639Z,6.20
2018-12-08T04:53:01.826Z,6.30
2018-12-08T04:55:28.365Z,6.30
2018-12-08T04:57:55.945Z,6.30
2018-12-08T05:00:22.608Z,6.40
2018-12-08T05:02:49.133Z,6.40
2018-12-08T05:05:15.593Z,6.30
2018-12-08T05:07:42.295Z,6.30
2018-12-08T05:10:08.744Z,6.30
2018-12-08T05:12:35.249Z,6.30
2018-12-08T05:15:01.918Z,6.40
2018-12-08T05:17:30.402Z,6.40
2018-12-08T05:19:57.558Z,6.40
2018-12-08T05:22:24.155Z,6.30
2018-12-08T05:24:50.700Z,6.30
2018-12-08T05:27:18.889Z,6.30
2018-12-08T05:29:47.053Z,6.20
2018-12-08T05:32:13.632Z,6.40
2018-12-08T05:34:40.265Z,6.30
2018-12-08T05:37:08.458Z,6.40
2018-12-08T05:39:35.501Z,6.40
2018-12-08T05:42:03.800Z,6.50
2018-12-08T05:44:30.260Z,6.50
2018-12-08T05:46:56.754Z,6.40
2018-12-08T05:49:23.997Z,6.50
2018-12-08T05:51:52.294Z,6.50
2018-12-08T05:54:19.345Z,6.50
2018-12-08T05:56:46.954Z,6.50
2018-12-08T05:59:13.549Z,6.50
2018-12-08T06:01:41.360Z,6.50
2018-12-08T06:04:08.968Z,6.50
2018-12-08T06:06:35.517Z,6.50
2018-12-08T06:09:04.691Z,6.50
2018-12-08T06:11:31.236Z,6.40
2018-12-08T06:13:57.822Z,6.50
2018-12-08T06:16:24.464Z,6.50
2018-12-08T06:18:51.941Z,6.50
2018-12-08T06:21:22.623Z,6.40
2018-12-08T06:23:49.223Z,6.40
2018-12-08T06:26:15.872Z,6.40
2018-12-08T06:28:43.365Z,6.50
2018-12-08T06:31:09.923Z,6.50
2018-12-08T06:33:36.473Z,6.50
2018-12-08T06:36:03.286Z,6.50
2018-12-08T06:38:29.758Z,6.40
2018-12-08T06:40:56.442Z,6.40
2018-12-08T06:43:23.116Z,6.40
2018-12-08T06:45:49.765Z,6.40
2018-12-08T06:48:16.465Z,6.30
2018-12-08T06:50:44.089Z,6.40
2018-12-08T06:53:10.659Z,6.30
2018-12-08T06:55:37.237Z,6.30
2018-12-08T06:58:03.937Z,6.30
2018-12-08T07:00:30.494Z,6.40
2018-12-08T07:02:57.070Z,6.40
2018-12-08T07:05:24.539Z,6.30
2018-12-08T07:07:51.122Z,6.20
2018-12-08T07:10:17.786Z,6.30
2018-12-08T07:12:44.364Z,6.20
2018-12-08T07:15:10.933Z,6.30
2018-12-08T07:17:37.505Z,6.30
2018-12-08T07:20:04.673Z,6.40
2018-12-08T07:22:31.743Z,6.30
2018-12-08T07:24:58.327Z,6.30
2018-12-08T07:27:24.778Z,6.30
2018-12-08T07:29:51.265Z,6.40
2018-12-08T07:32:17.712Z,6.40
2018-12-08T07:34:44.319Z,6.50
2018-12-08T07:37:10.876Z,6.50
2018-12-08T07:39:37.348Z,6.50
2018-12-08T07:42:04.315Z,6.50
2018-12-08T07:44:30.813Z,6.50
2018-12-08T07:46:57.383Z,6.50
2018-12-08T07:49:23.860Z,6.60
2018-12-08T07:51:50.321Z,6.60
2018-12-08T07:54:16.915Z,6.60
2018-12-08T07:56:43.366Z,6.70
2018-12-08T07:59:10.065Z,6.60
2018-12-08T08:01:36.518Z,6.60
2018-12-08T08:04:03.112Z,6.70
2018-12-08T08:06:29.565Z,6.70
2018-12-08T08:08:56.044Z,6.70
2018-12-08T08:11:22.706Z,6.80
2018-12-08T08:13:49.305Z,6.70
2018-12-08T08:16:15.873Z,6.80
2018-12-08T08:18:42.449Z,6.80
2018-12-08T08:21:08.902Z,6.80
2018-12-08T08:23:35.406Z,6.80
2018-12-08T08:26:01.853Z,6.80
2018-12-08T08:28:28.331Z,7.00
2018-12-08T08:30:54.782Z,6.90
2018-12-08T08:33:21.383Z,6.90
2018-12-08T08:35:47.852Z,6.90
2018-12-08T08:38:14.445Z,6.90
2018-12-08T08:40:41.076Z,6.90
2018-12-08T08:43:07.521Z,7.00
2018-12-08T08:45:34.035Z,7.00
2018-12-08T08:48:00.644Z,7.00
2018-12-08T08:50:27.022Z,6.90
2018-12-08T08:52:53.569Z,6.90
2018-12-08T08:55:20.069Z,6.90
2018-12-08T08:57:46.525Z,6.90
2018-12-08T09:00:13.137Z,6.80
2018-12-08T09:02:39.686Z,6.70
2018-12-08T09:05:06.581Z,6.80
2018-12-08T09:07:33.232Z,6.80
2018-12-08T09:10:00.735Z,6.90
2018-12-08T09:12:27.300Z,6.80
2018-12-08T09:14:53.977Z,7.00
2018-12-08T09:17:21.134Z,7.20
2018-12-08T09:19:48.220Z,7.20
2018-12-08T09:22:15.304Z,7.20
2018-12-08T09:24:43.665Z,7.20
2018-12-08T09:27:11.832Z,7.20
2018-12-08T09:29:38.530Z,7.20
2018-12-08T09:32:06.131Z,7.00
2018-12-08T09:34:34.334Z,7.10
2018-12-08T09:37:02.028Z,7.10
2018-12-08T09:39:29.101Z,7.00
2018-12-08T09:41:55.661Z,7.00
2018-12-08T09:44:22.246Z,7.00
2018-12-08T09:46:48.704Z,6.90
2018-12-08T09:49:15.217Z,7.00
2018-12-08T09:51:41.667Z,7.00
2018-12-08T09:54:08.261Z,7.10
2018-12-08T09:56:34.721Z,7.10
2018-12-08T09:59:01.320Z,7.20
2018-12-08T10:01:27.938Z,7.20
2018-12-08T10:03:54.397Z,7.20
2018-12-08T10:06:20.889Z,7.10
2018-12-08T10:08:47.348Z,7.20
2018-12-08T10:11:13.945Z,7.30
2018-12-08T10:13:42.110Z,7.30
2018-12-08T10:16:08.784Z,7.30
2018-12-08T10:18:35.350Z,7.20
2018-12-08T10:21:02.262Z,7.20
2018-12-08T10:23:28.716Z,7.30
2018-12-08T10:25:55.542Z,7.40
2018-12-08T10:28:22.020Z,7.50
2018-12-08T10:30:48.507Z,7.40
2018-12-08T10:33:15.089Z,7.40
2018-12-08T10:35:42.793Z,7.50
2018-12-08T10:38:10.164Z,7.40
2018-12-08T10:40:36.874Z,7.50
2018-12-08T10:43:03.552Z,7.50
2018-12-08T10:45:30.112Z,7.60
2018-12-08T10:47:56.480Z,7.60
2018-12-08T10:50:22.958Z,7.60
2018-12-08T10:52:49.746Z,7.50
2018-12-08T10:55:18.454Z,7.60
2018-12-08T10:57:45.008Z,7.50
2018-12-08T11:00:13.624Z,7.50
2018-12-08T11:02:40.393Z,7.50
2018-12-08T11:05:07.082Z,7.60
2018-12-08T11:07:33.780Z,7.60
2018-12-08T11:10:00.402Z,7.60
2018-12-08T11:12:27.076Z,7.70
2018-12-08T11:15:00.478Z,7.60
2018-12-08T11:17:22.257Z,7.60
2018-12-08T11:19:48.766Z,7.70
2018-12-08T11:22:16.593Z,7.60
2018-12-08T11:24:44.081Z,7.70
2018-12-08T11:27:10.660Z,7.60
2018-12-08T11:29:37.148Z,7.60
2018-12-08T11:32:03.855Z,7.60
2018-12-08T11:34:30.422Z,7.50
2018-12-08T11:36:57.180Z,7.60
2018-12-08T11:39:23.693Z,7.60
2018-12-08T11:41:50.511Z,7.70
2018-12-08T11:44:17.221Z,7.50
2018-12-08T11:46:43.834Z,7.60
2018-12-08T11:49:10.334Z,7.60
2018-12-08T11:51:36.858Z,7.70
2018-12-08T11:54:03.574Z,7.70
2018-12-08T11:56:30.143Z,7.60
2018-12-08T11:58:56.771Z,7.70
2018-12-08T12:01:23.230Z,7.70
2018-12-08T12:03:49.941Z,7.90
2018-12-08T12:06:16.428Z,7.80
2018-12-08T12:08:43.265Z,7.70
2018-12-08T12:11:09.881Z,7.70
2018-12-08T12:13:36.369Z,7.70
2018-12-08T12:16:03.039Z,7.60
2018-12-08T12:18:29.629Z,7.60
2018-12-08T12:20:56.116Z,7.70
2018-12-08T12:23:22.660Z,7.60
2018-12-08T12:25:49.376Z,7.60
2018-12-08T12:28:15.889Z,7.60
2018-12-08T12:30:42.662Z,7.50
2018-12-08T12:33:09.910Z,7.60
2018-12-08T12:35:36.570Z,7.60
2018-12-08T12:38:03.244Z,7.50
2018-12-08T12:40:30.942Z,7.50
2018-12-08T12:42:57.544Z,7.40
2018-12-08T12:45:24.574Z,7.40
2018-12-08T12:47:51.142Z,7.40
2018-12-08T12:50:17.672Z,7.50
2018-12-08T12:52:46.076Z,7.60
2018-12-08T12:55:13.456Z,7.50
2018-12-08T12:57:40.172Z,7.40
2018-12-08T13:00:09.195Z,7.20
2018-12-08T13:02:35.853Z,7.30
2018-12-08T13:05:04.856Z,7.40
2018-12-08T13:07:33.137Z,7.50
2018-12-08T13:09:59.580Z,7.60
2018-12-08T13:12:26.491Z,7.50
2018-12-08T13:14:53.217Z,7.50
2018-12-08T13:17:19.745Z,7.40
2018-12-08T13:19:46.347Z,7.50
2018-12-08T13:22:13.233Z,7.40
2018-12-08T13:24:39.948Z,7.40
2018-12-08T13:27:06.406Z,7.50
2018-12-08T13:29:33.214Z,7.50
2018-12-08T13:31:59.784Z,7.50
2018-12-08T13:34:27.601Z,7.50
2018-12-08T13:36:54.268Z,7.60
2018-12-08T13:39:21.006Z,7.40
2018-12-08T13:41:47.776Z,7.40
2018-12-08T13:44:34.183Z,7.40
2018-12-08T13:47:02.270Z,7.40
2018-12-08T13:49:28.732Z,7.50
2018-12-08T13:51:55.292Z,7.50
2018-12-08T13:54:45.201Z,7.50
2018-12-08T13:57:12.103Z,7.50
2018-12-08T13:59:38.654Z,7.40
2018-12-08T14:02:06.953Z,7.30
2018-12-08T14:04:33.860Z,7.40
2018-12-08T14:07:00.432Z,7.30
2018-12-08T14:09:28.937Z,7.40
2018-12-08T14:11:55.659Z,7.40
2018-12-08T14:14:22.197Z,7.40
2018-12-08T14:16:50.365Z,7.40
2018-12-08T14:19:16.878Z,7.40
2018-12-08T14:21:43.333Z,7.50
2018-12-08T14:24:09.918Z,7.50
2018-12-08T14:26:36.377Z,7.50
2018-12-08T14:29:02.997Z,7.50
2018-12-08T14:31:29.775Z,7.60
2018-12-08T14:33:56.661Z,7.50
2018-12-08T14:36:23.404Z,7.50
2018-12-08T14:38:57.311Z,7.40
2018-12-08T14:41:18.543Z,7.30
2018-12-08T14:43:44.997Z,7.40
2018-12-08T14:46:11.554Z,7.40
2018-12-08T14:48:39.153Z,7.40
2018-12-08T14:51:05.758Z,7.40
2018-12-08T14:53:32.655Z,7.50
2018-12-08T14:55:59.216Z,7.40
2018-12-08T14:58:25.825Z,7.30
2018-12-08T15:00:52.482Z,7.40
2018-12-08T15:03:19.817Z,7.40
2018-12-08T15:05:46.416Z,7.40
2018-12-08T15:08:13.175Z,7.50
2018-12-08T15:10:39.730Z,7.50
2018-12-08T15:13:06.215Z,7.40
2018-12-08T15:15:32.772Z,7.50
2018-12-08T15:17:59.285Z,7.50
2018-12-08T15:20:26.035Z,7.60
2018-12-08T15:22:52.605Z,7.50
2018-12-08T15:25:19.204Z,7.50
2018-12-08T15:27:45.799Z,7.50
2018-12-08T15:30:12.369Z,7.50
2018-12-08T15:32:39.004Z,7.60
2018-12-08T15:35:07.849Z,7.70
2018-12-08T15:37:34.491Z,7.70
2018-12-08T15:40:01.322Z,7.70
2018-12-08T15:42:29.504Z,7.80
2018-12-08T15:44:56.182Z,7.80
2018-12-08T15:47:22.797Z,7.80
2018-12-08T15:49:49.461Z,7.90
2018-12-08T15:52:16.168Z,7.90
2018-12-08T15:54:42.639Z,8.00
2018-12-08T15:57:09.973Z,8.00
2018-12-08T15:59:36.734Z,7.90
2018-12-08T16:02:03.430Z,7.90
2018-12-08T16:04:29.889Z,7.90
2018-12-08T16:06:56.388Z,7.90
2018-12-08T16:09:22.908Z,7.90
2018-12-08T16:11:49.475Z,7.90
2018-12-08T16:14:17.025Z,8.00
2018-12-08T16:16:43.610Z,7.90
2018-12-08T16:19:10.182Z,7.90
2018-12-08T16:21:36.780Z,7.90
2018-12-08T16:24:04.681Z,7.90
2018-12-08T16:26:31.438Z,7.80
2018-12-08T16:28:59.583Z,7.80
2018-12-08T16:31:27.127Z,7.90
2018-12-08T16:33:53.784Z,7.90
2018-12-08T16:36:21.950Z,7.90
2018-12-08T16:38:48.543Z,7.90
2018-12-08T16:41:15.904Z,8.00
2018-12-08T16:43:42.517Z,8.00
2018-12-08T16:46:09.974Z,8.00
2018-12-08T16:48:36.662Z,7.90
2018-12-08T16:51:03.479Z,8.00
2018-12-08T16:53:30.142Z,8.00
2018-12-08T16:55:56.652Z,8.00
2018-12-08T16:58:23.314Z,8.00
2018-12-08T17:00:50.073Z,8.10
2018-12-08T17:03:16.443Z,8.10
2018-12-08T17:05:43.044Z,8.20
2018-12-08T17:08:09.668Z,8.20
2018-12-08T17:10:36.180Z,8.20
2018-12-08T17:13:03.038Z,8.20
2018-12-08T17:15:29.783Z,8.30
2018-12-08T17:17:56.238Z,8.30
2018-12-08T17:20:22.825Z,8.30
2018-12-08T17:22:49.396Z,8.20
2018-12-08T17:25:16.017Z,8.10
2018-12-08T17:27:43.297Z,8.10
2018-12-08T17:30:10.070Z,8.10
2018-12-08T17:32:36.580Z,8.10
2018-12-08T17:35:03.341Z,8.10
2018-12-08T17:37:29.938Z,8.10
2018-12-08T17:39:56.430Z,8.10
2018-12-08T17:42:22.893Z,8.10
2018-12-08T17:44:49.669Z,8.10
2018-12-08T17:47:16.126Z,8.10
2018-12-08T17:49:43.631Z,8.10
2018-12-08T17:52:10.081Z,8.00
2018-12-08T17:54:36.490Z,8.10
2018-12-08T17:57:03.267Z,8.10
2018-12-08T17:59:30.024Z,8.00
2018-12-08T18:01:56.502Z,8.00
2018-12-08T18:04:23.101Z,7.90
2018-12-08T18:06:49.763Z,7.80
2018-12-08T18:09:16.370Z,7.90
2018-12-08T18:11:43.013Z,7.90
2018-12-08T18:14:09.513Z,7.90
2018-12-08T18:16:36.128Z,7.90
2018-12-08T18:19:02.703Z,7.80
2018-12-08T18:21:29.359Z,7.80
2018-12-08T18:23:56.146Z,7.80
2018-12-08T18:26:23.497Z,7.80
2018-12-08T18:28:50.914Z,7.80
2018-12-08T18:31:18.165Z,7.80
2018-12-08T18:33:44.752Z,7.80
2018-12-08T18:36:11.494Z,7.90
2018-12-08T18:38:38.074Z,7.90
2018-12-08T18:41:04.585Z,7.80
2018-12-08T18:43:31.073Z,7.80
2018-12-08T18:45:57.680Z,7.90
2018-12-08T18:48:24.127Z,7.90
2018-12-08T18:50:50.714Z,7.90
2018-12-08T18:53:17.229Z,8.00
2018-12-08T18:55:44.728Z,8.00
2018-12-08T18:58:11.286Z,8.00
2018-12-08T19:00:38.598Z,8.10
2018-12-08T19:03:06.211Z,8.00
2018-12-08T19:05:32.910Z,8.00
2018-12-08T19:07:59.505Z,8.00
2018-12-08T19:10:26.243Z,7.90
2018-12-08T19:12:52.841Z,7.90
2018-12-08T19:15:19.532Z,7.80
2018-12-08T19:17:46.256Z,7.80
2018-12-08T19:20:12.969Z,7.80
2018-12-08T19:22:41.224Z,7.80
2018-12-08T19:25:07.978Z,7.80
2018-12-08T19:27:34.637Z,7.70
2018-12-08T19:30:01.441Z,7.70
2018-12-08T19:32:29.014Z,7.70
2018-12-08T19:34:55.745Z,7.70
2018-12-08T19:37:22.370Z,7.80
2018-12-08T19:39:48.941Z,7.70
2018-12-08T19:42:17.290Z,7.80
2018-12-08T19:44:43.879Z,7.80
2018-12-08T19:47:11.150Z,7.70
2018-12-08T19:49:37.883Z,7.70
2018-12-08T19:52:04.598Z,7.70
2018-12-08T19:54:31.261Z,7.70
2018-12-08T19:56:57.886Z,7.70
2018-12-08T19:59:24.324Z,7.60
2018-12-08T20:01:50.932Z,7.50
2018-12-08T20:04:17.413Z,7.40
2018-12-08T20:06:43.972Z,7.50
2018-12-08T20:09:10.490Z,7.50
2018-12-08T20:11:37.043Z,7.50
2018-12-08T20:14:03.612Z,7.60
2018-12-08T20:16:30.333Z,7.70
2018-12-08T20:18:56.783Z,7.70
2018-12-08T20:21:23.322Z,7.70
2018-12-08T20:23:50.018Z,7.60
2018-12-08T20:26:16.535Z,7.50
2018-12-08T20:28:42.931Z,7.50
2018-12-08T20:31:09.645Z,7.50
2018-12-08T20:33:36.248Z,7.50
2018-12-08T20:36:02.789Z,7.50
2018-12-08T20:38:29.273Z,7.50
2018-12-08T20:40:55.882Z,7.40
2018-12-08T20:43:22.329Z,7.50
2018-12-08T20:45:48.825Z,7.40
2018-12-08T20:48:15.297Z,7.40
2018-12-08T20:50:41.766Z,7.40
2018-12-08T20:53:08.338Z,7.40
2018-12-08T20:55:34.901Z,7.40
2018-12-08T20:58:01.399Z,7.50
2018-12-08T21:00:27.900Z,7.50
2018-12-08T21:02:54.553Z,7.60
2018-12-08T21:05:21.060Z,7.50
2018-12-08T21:07:47.711Z,7.60
2018-12-08T21:10:14.419Z,7.60
2018-12-08T21:12:41.003Z,7.50
2018-12-08T21:15:07.816Z,7.60
2018-12-08T21:17:34.263Z,7.70
2018-12-08T21:20:01.715Z,7.70
2018-12-08T21:22:28.297Z,7.70
2018-12-08T21:24:54.929Z,7.70
2018-12-08T21:27:21.400Z,7.80
2018-12-08T21:29:47.899Z,7.80
2018-12-08T21:32:14.410Z,7.80
2018-12-08T21:34:40.955Z,7.70
2018-12-08T21:37:07.481Z,7.70
2018-12-08T21:39:34.043Z,7.80
2018-12-08T21:42:00.528Z,7.70
2018-12-08T21:44:27.041Z,7.80
2018-12-08T21:46:53.597Z,7.70
2018-12-08T21:49:20.189Z,7.80
2018-12-08T21:51:46.605Z,7.70
2018-12-08T21:54:13.113Z,7.70
2018-12-08T21:56:39.717Z,7.80
2018-12-08T21:59:06.183Z,7.70
2018-12-08T22:01:32.775Z,7.70
2018-12-08T22:04:00.931Z,7.70
2018-12-08T22:06:27.646Z,7.70
2018-12-08T22:08:54.297Z,7.80
2018-12-08T22:11:20.864Z,7.80
2018-12-08T22:13:47.463Z,7.90
2018-12-08T22:16:14.564Z,7.80
2018-12-08T22:18:41.529Z,7.80
2018-12-08T22:21:08.225Z,7.80
2018-12-08T22:23:34.721Z,7.90
2018-12-08T22:26:01.349Z,7.80
2018-12-08T22:28:28.005Z,7.80
2018-12-08T22:30:54.460Z,7.90
2018-12-08T22:33:21.010Z,7.90
2018-12-08T22:35:47.583Z,7.80
2018-12-08T22:38:14.033Z,7.90
2018-12-08T22:40:40.656Z,7.90
2018-12-08T22:43:07.999Z,7.80
2018-12-08T22:45:34.646Z,7.80
2018-12-08T22:48:01.348Z,7.80
2018-12-08T22:50:27.819Z,7.80
2018-12-08T22:52:54.412Z,7.80
2018-12-08T22:55:21.000Z,7.80
2018-12-08T22:57:47.553Z,7.70
2018-12-08T23:00:42.011Z,7.70
2018-12-08T23:03:09.036Z,7.60
2018-12-08T23:05:35.809Z,7.50
2018-12-08T23:08:02.574Z,7.50
2018-12-08T23:10:30.881Z,7.50
2018-12-08T23:12:59.449Z,7.50
2018-12-08T23:15:26.098Z,7.40
2018-12-08T23:17:52.630Z,7.30
2018-12-08T23:20:19.217Z,7.30
2018-12-08T23:22:47.393Z,7.20
2018-12-08T23:25:14.337Z,7.20
2018-12-08T23:27:40.897Z,7.20
2018-12-08T23:30:09.483Z,7.20
2018-12-08T23:32:36.146Z,7.10
2018-12-08T23:35:04.061Z,7.20
2018-12-08T23:37:30.901Z,7.20
2018-12-08T23:39:57.537Z,7.30
2018-12-08T23:42:24.712Z,7.20
2018-12-08T23:44:51.503Z,7.10
2018-12-08T23:47:19.061Z,7.10
2018-12-08T23:49:45.749Z,7.10
2018-12-08T23:52:12.440Z,7.30
2018-12-08T23:54:39.131Z,7.30
2018-12-08T23:57:06.872Z,7.20
2018-12-08T23:59:33.462Z,7.10
